sensor_id;sensor_type;location;lat;lon;timestamp;P1;durP1;ratioP1;P2;durP2;ratioP2
31126;SDS011;17775;57.948;12.514;2023-08-08T00:00:54;0.90;;;0.20;;
31126;SDS011;17775;57.948;12.514;2023-08-08T00:03:20;3.10;;;0.20;;
31126;SDS011;17775;57.948;12.514;2023-08-08T00:05:47;3.55;;;0.50;;
31126;SDS011;17775;57.948;12.514;2023-08-08T00:08:13;1.25;;;0.30;;
31126;SDS011;17775;57.948;12.514;2023-08-08T00:10:42;0.50;;;0.30;;
31126;SDS011;17775;57.948;12.514;2023-08-08T00:13:09;1.42;;;0.20;;
31126;SDS011;17775;57.948;12.514;2023-08-08T00:15:36;2.05;;;0.30;;
31126;SDS011;17775;57.948;12.514;2023-08-08T00:18:03;1.60;;;0.35;;
31126;SDS011;17775;57.948;12.514;2023-08-08T00:20:29;1.40;;;0.32;;
31126;SDS011;17775;57.948;12.514;2023-08-08T00:22:56;0.82;;;0.20;;
31126;SDS011;17775;57.948;12.514;2023-08-08T00:25:23;1.20;;;0.32;;
31126;SDS011;17775;57.948;12.514;2023-08-08T00:27:49;1.95;;;0.32;;
31126;SDS011;17775;57.948;12.514;2023-08-08T00:30:16;1.10;;;0.30;;
31126;SDS011;17775;57.948;12.514;2023-08-08T00:32:42;2.97;;;0.30;;
31126;SDS011;17775;57.948;12.514;2023-08-08T00:35:09;3.78;;;0.40;;
31126;SDS011;17775;57.948;12.514;2023-08-08T00:37:36;2.28;;;0.30;;
31126;SDS011;17775;57.948;12.514;2023-08-08T00:40:02;2.03;;;0.40;;
31126;SDS011;17775;57.948;12.514;2023-08-08T00:42:29;1.45;;;0.30;;
31126;SDS011;17775;57.948;12.514;2023-08-08T00:44:55;6.15;;;0.45;;
31126;SDS011;17775;57.948;12.514;2023-08-08T00:47:28;1.00;;;0.40;;
31126;SDS011;17775;57.948;12.514;2023-08-08T00:49:54;2.00;;;0.35;;
31126;SDS011;17775;57.948;12.514;2023-08-08T00:52:21;2.30;;;0.40;;
31126;SDS011;17775;57.948;12.514;2023-08-08T00:54:48;1.20;;;0.30;;
31126;SDS011;17775;57.948;12.514;2023-08-08T00:57:14;2.22;;;0.47;;
31126;SDS011;17775;57.948;12.514;2023-08-08T00:59:41;5.50;;;0.60;;
31126;SDS011;17775;57.948;12.514;2023-08-08T01:02:07;5.07;;;0.52;;
31126;SDS011;17775;57.948;12.514;2023-08-08T01:04:34;4.30;;;0.40;;
31126;SDS011;17775;57.948;12.514;2023-08-08T01:07:06;2.50;;;0.43;;
31126;SDS011;17775;57.948;12.514;2023-08-08T01:12:21;3.08;;;0.65;;
31126;SDS011;17775;57.948;12.514;2023-08-08T01:14:48;2.22;;;0.30;;
31126;SDS011;17775;57.948;12.514;2023-08-08T01:17:15;3.13;;;0.40;;
31126;SDS011;17775;57.948;12.514;2023-08-08T01:19:41;3.60;;;0.77;;
31126;SDS011;17775;57.948;12.514;2023-08-08T01:22:09;1.35;;;0.30;;
31126;SDS011;17775;57.948;12.514;2023-08-08T01:24:40;2.28;;;0.40;;
31126;SDS011;17775;57.948;12.514;2023-08-08T01:27:07;1.38;;;0.47;;
31126;SDS011;17775;57.948;12.514;2023-08-08T01:29:33;3.22;;;0.40;;
31126;SDS011;17775;57.948;12.514;2023-08-08T01:32:00;2.00;;;0.40;;
31126;SDS011;17775;57.948;12.514;2023-08-08T01:34:27;3.22;;;0.50;;
31126;SDS011;17775;57.948;12.514;2023-08-08T01:36:59;4.05;;;0.40;;
31126;SDS011;17775;57.948;12.514;2023-08-08T01:39:26;2.42;;;0.50;;
31126;SDS011;17775;57.948;12.514;2023-08-08T01:41:54;4.32;;;0.50;;
31126;SDS011;17775;57.948;12.514;2023-08-08T01:44:20;2.97;;;0.50;;
31126;SDS011;17775;57.948;12.514;2023-08-08T01:46:49;2.30;;;0.40;;
31126;SDS011;17775;57.948;12.514;2023-08-08T01:49:16;1.77;;;0.40;;
31126;SDS011;17775;57.948;12.514;2023-08-08T01:51:42;3.55;;;0.57;;
31126;SDS011;17775;57.948;12.514;2023-08-08T01:54:09;2.88;;;0.52;;
31126;SDS011;17775;57.948;12.514;2023-08-08T01:56:36;2.58;;;0.52;;
31126;SDS011;17775;57.948;12.514;2023-08-08T01:59:02;2.45;;;0.50;;
31126;SDS011;17775;57.948;12.514;2023-08-08T02:01:29;3.45;;;0.60;;
31126;SDS011;17775;57.948;12.514;2023-08-08T02:03:55;3.05;;;1.25;;
31126;SDS011;17775;57.948;12.514;2023-08-08T02:06:22;2.47;;;0.50;;
31126;SDS011;17775;57.948;12.514;2023-08-08T02:08:49;1.90;;;0.40;;
31126;SDS011;17775;57.948;12.514;2023-08-08T02:11:15;2.28;;;0.40;;
31126;SDS011;17775;57.948;12.514;2023-08-08T02:13:42;2.47;;;0.40;;
31126;SDS011;17775;57.948;12.514;2023-08-08T02:16:08;2.75;;;0.60;;
31126;SDS011;17775;57.948;12.514;2023-08-08T02:18:35;5.85;;;1.05;;
31126;SDS011;17775;57.948;12.514;2023-08-08T02:21:07;4.53;;;0.68;;
31126;SDS011;17775;57.948;12.514;2023-08-08T02:23:34;2.45;;;0.70;;
31126;SDS011;17775;57.948;12.514;2023-08-08T02:26:01;3.03;;;0.65;;
31126;SDS011;17775;57.948;12.514;2023-08-08T02:28:27;4.38;;;0.40;;
31126;SDS011;17775;57.948;12.514;2023-08-08T02:30:54;3.22;;;0.43;;
31126;SDS011;17775;57.948;12.514;2023-08-08T02:33:21;3.55;;;1.23;;
31126;SDS011;17775;57.948;12.514;2023-08-08T02:35:47;2.05;;;0.50;;
31126;SDS011;17775;57.948;12.514;2023-08-08T02:38:14;2.30;;;0.50;;
31126;SDS011;17775;57.948;12.514;2023-08-08T02:40:40;4.22;;;0.68;;
31126;SDS011;17775;57.948;12.514;2023-08-08T02:43:07;4.78;;;0.70;;
31126;SDS011;17775;57.948;12.514;2023-08-08T02:45:35;4.15;;;0.60;;
31126;SDS011;17775;57.948;12.514;2023-08-08T02:48:02;4.30;;;0.47;;
31126;SDS011;17775;57.948;12.514;2023-08-08T02:50:28;7.35;;;1.67;;
31126;SDS011;17775;57.948;12.514;2023-08-08T02:52:56;5.07;;;0.80;;
31126;SDS011;17775;57.948;12.514;2023-08-08T02:55:23;3.95;;;0.60;;
31126;SDS011;17775;57.948;12.514;2023-08-08T02:57:49;2.45;;;0.45;;
31126;SDS011;17775;57.948;12.514;2023-08-08T03:00:16;4.93;;;0.75;;
31126;SDS011;17775;57.948;12.514;2023-08-08T03:02:44;4.78;;;0.52;;
31126;SDS011;17775;57.948;12.514;2023-08-08T03:05:11;6.95;;;0.70;;
31126;SDS011;17775;57.948;12.514;2023-08-08T03:07:37;2.13;;;0.70;;
31126;SDS011;17775;57.948;12.514;2023-08-08T03:10:04;3.55;;;0.60;;
31126;SDS011;17775;57.948;12.514;2023-08-08T03:12:31;3.42;;;0.60;;
31126;SDS011;17775;57.948;12.514;2023-08-08T03:14:58;5.28;;;0.60;;
31126;SDS011;17775;57.948;12.514;2023-08-08T03:17:27;5.00;;;1.10;;
31126;SDS011;17775;57.948;12.514;2023-08-08T03:19:54;2.22;;;0.50;;
31126;SDS011;17775;57.948;12.514;2023-08-08T03:22:21;6.07;;;0.70;;
31126;SDS011;17775;57.948;12.514;2023-08-08T03:24:47;2.15;;;0.60;;
31126;SDS011;17775;57.948;12.514;2023-08-08T03:27:14;2.90;;;0.52;;
31126;SDS011;17775;57.948;12.514;2023-08-08T03:29:40;6.18;;;0.82;;
31126;SDS011;17775;57.948;12.514;2023-08-08T03:32:08;4.57;;;0.70;;
31126;SDS011;17775;57.948;12.514;2023-08-08T03:34:34;6.57;;;0.90;;
31126;SDS011;17775;57.948;12.514;2023-08-08T03:37:01;6.00;;;0.80;;
31126;SDS011;17775;57.948;12.514;2023-08-08T03:39:27;7.05;;;0.80;;
31126;SDS011;17775;57.948;12.514;2023-08-08T03:41:54;3.05;;;0.90;;
31126;SDS011;17775;57.948;12.514;2023-08-08T03:44:21;6.35;;;0.73;;
31126;SDS011;17775;57.948;12.514;2023-08-08T03:46:47;4.65;;;0.77;;
31126;SDS011;17775;57.948;12.514;2023-08-08T03:49:14;5.28;;;0.88;;
31126;SDS011;17775;57.948;12.514;2023-08-08T03:51:40;3.85;;;0.57;;
31126;SDS011;17775;57.948;12.514;2023-08-08T03:54:07;5.95;;;0.98;;
31126;SDS011;17775;57.948;12.514;2023-08-08T03:56:33;3.33;;;0.60;;
31126;SDS011;17775;57.948;12.514;2023-08-08T03:59:03;2.92;;;0.50;;
31126;SDS011;17775;57.948;12.514;2023-08-08T04:01:29;2.75;;;0.50;;
31126;SDS011;17775;57.948;12.514;2023-08-08T04:03:56;5.78;;;0.77;;
31126;SDS011;17775;57.948;12.514;2023-08-08T04:06:22;2.63;;;0.68;;
31126;SDS011;17775;57.948;12.514;2023-08-08T04:08:49;5.25;;;1.00;;
31126;SDS011;17775;57.948;12.514;2023-08-08T04:11:16;2.13;;;0.40;;
31126;SDS011;17775;57.948;12.514;2023-08-08T04:13:42;1.27;;;0.50;;
31126;SDS011;17775;57.948;12.514;2023-08-08T04:16:09;1.50;;;0.40;;
31126;SDS011;17775;57.948;12.514;2023-08-08T04:18:38;3.13;;;0.50;;
31126;SDS011;17775;57.948;12.514;2023-08-08T04:21:04;0.75;;;0.38;;
31126;SDS011;17775;57.948;12.514;2023-08-08T04:23:31;2.05;;;0.43;;
31126;SDS011;17775;57.948;12.514;2023-08-08T04:25:57;5.55;;;0.70;;
31126;SDS011;17775;57.948;12.514;2023-08-08T04:28:24;2.78;;;1.02;;
31126;SDS011;17775;57.948;12.514;2023-08-08T04:30:50;5.25;;;0.60;;
31126;SDS011;17775;57.948;12.514;2023-08-08T04:33:17;5.07;;;0.60;;
31126;SDS011;17775;57.948;12.514;2023-08-08T04:35:43;3.38;;;0.55;;
31126;SDS011;17775;57.948;12.514;2023-08-08T04:38:10;2.67;;;0.68;;
31126;SDS011;17775;57.948;12.514;2023-08-08T04:40:36;7.25;;;0.50;;
31126;SDS011;17775;57.948;12.514;2023-08-08T04:43:04;6.25;;;0.65;;
31126;SDS011;17775;57.948;12.514;2023-08-08T04:45:31;3.80;;;0.40;;
31126;SDS011;17775;57.948;12.514;2023-08-08T04:47:58;2.33;;;0.43;;
31126;SDS011;17775;57.948;12.514;2023-08-08T04:50:24;3.08;;;0.60;;
31126;SDS011;17775;57.948;12.514;2023-08-08T04:52:51;0.88;;;0.40;;
31126;SDS011;17775;57.948;12.514;2023-08-08T04:55:17;5.57;;;0.60;;
31126;SDS011;17775;57.948;12.514;2023-08-08T04:57:47;1.98;;;0.60;;
31126;SDS011;17775;57.948;12.514;2023-08-08T05:00:13;2.08;;;0.40;;
31126;SDS011;17775;57.948;12.514;2023-08-08T05:02:40;6.32;;;0.65;;
31126;SDS011;17775;57.948;12.514;2023-08-08T05:05:07;0.68;;;0.45;;
31126;SDS011;17775;57.948;12.514;2023-08-08T05:07:35;1.58;;;0.50;;
31126;SDS011;17775;57.948;12.514;2023-08-08T05:10:04;3.38;;;0.52;;
31126;SDS011;17775;57.948;12.514;2023-08-08T05:12:30;4.60;;;0.93;;
31126;SDS011;17775;57.948;12.514;2023-08-08T05:14:57;5.55;;;0.80;;
31126;SDS011;17775;57.948;12.514;2023-08-08T05:17:24;2.00;;;0.43;;
31126;SDS011;17775;57.948;12.514;2023-08-08T05:19:50;4.88;;;0.52;;
31126;SDS011;17775;57.948;12.514;2023-08-08T05:22:17;3.08;;;0.50;;
31126;SDS011;17775;57.948;12.514;2023-08-08T05:24:43;3.97;;;0.55;;
31126;SDS011;17775;57.948;12.514;2023-08-08T05:27:10;3.45;;;1.20;;
31126;SDS011;17775;57.948;12.514;2023-08-08T05:29:37;1.88;;;0.55;;
31126;SDS011;17775;57.948;12.514;2023-08-08T05:32:05;3.50;;;0.52;;
31126;SDS011;17775;57.948;12.514;2023-08-08T05:34:35;3.30;;;0.60;;
31126;SDS011;17775;57.948;12.514;2023-08-08T05:37:01;3.72;;;0.68;;
31126;SDS011;17775;57.948;12.514;2023-08-08T05:39:42;5.28;;;0.88;;
31126;SDS011;17775;57.948;12.514;2023-08-08T05:42:08;1.70;;;0.95;;
31126;SDS011;17775;57.948;12.514;2023-08-08T05:44:37;4.53;;;0.60;;
31126;SDS011;17775;57.948;12.514;2023-08-08T05:47:04;3.22;;;0.50;;
31126;SDS011;17775;57.948;12.514;2023-08-08T05:49:31;3.45;;;1.30;;
31126;SDS011;17775;57.948;12.514;2023-08-08T05:51:57;8.32;;;0.70;;
31126;SDS011;17775;57.948;12.514;2023-08-08T05:54:24;3.83;;;0.57;;
31126;SDS011;17775;57.948;12.514;2023-08-08T05:56:51;7.88;;;1.80;;
31126;SDS011;17775;57.948;12.514;2023-08-08T05:59:18;6.50;;;0.90;;
31126;SDS011;17775;57.948;12.514;2023-08-08T06:01:44;6.20;;;0.80;;
31126;SDS011;17775;57.948;12.514;2023-08-08T06:04:11;4.70;;;0.63;;
31126;SDS011;17775;57.948;12.514;2023-08-08T06:06:38;2.72;;;0.52;;
31126;SDS011;17775;57.948;12.514;2023-08-08T06:09:04;3.65;;;0.82;;
31126;SDS011;17775;57.948;12.514;2023-08-08T06:11:31;2.33;;;0.50;;
31126;SDS011;17775;57.948;12.514;2023-08-08T06:13:57;2.38;;;0.40;;
31126;SDS011;17775;57.948;12.514;2023-08-08T06:16:24;1.55;;;0.52;;
31126;SDS011;17775;57.948;12.514;2023-08-08T06:18:51;3.00;;;0.45;;
31126;SDS011;17775;57.948;12.514;2023-08-08T06:21:18;3.85;;;0.45;;
31126;SDS011;17775;57.948;12.514;2023-08-08T06:23:47;6.38;;;0.60;;
31126;SDS011;17775;57.948;12.514;2023-08-08T06:26:15;8.40;;;0.65;;
31126;SDS011;17775;57.948;12.514;2023-08-08T06:28:42;1.60;;;0.55;;
31126;SDS011;17775;57.948;12.514;2023-08-08T06:31:08;2.00;;;0.50;;
31126;SDS011;17775;57.948;12.514;2023-08-08T06:33:35;2.35;;;0.45;;
31126;SDS011;17775;57.948;12.514;2023-08-08T06:36:01;2.08;;;0.30;;
31126;SDS011;17775;57.948;12.514;2023-08-08T06:38:29;1.70;;;0.47;;
31126;SDS011;17775;57.948;12.514;2023-08-08T06:41:00;2.28;;;0.60;;
31126;SDS011;17775;57.948;12.514;2023-08-08T06:43:27;1.52;;;0.40;;
31126;SDS011;17775;57.948;12.514;2023-08-08T06:45:53;2.08;;;0.43;;
31126;SDS011;17775;57.948;12.514;2023-08-08T06:48:20;5.53;;;0.45;;
31126;SDS011;17775;57.948;12.514;2023-08-08T06:50:46;3.38;;;0.40;;
31126;SDS011;17775;57.948;12.514;2023-08-08T06:53:13;1.33;;;0.30;;
31126;SDS011;17775;57.948;12.514;2023-08-08T06:55:39;1.75;;;0.20;;
31126;SDS011;17775;57.948;12.514;2023-08-08T06:58:06;1.42;;;0.30;;
31126;SDS011;17775;57.948;12.514;2023-08-08T07:00:32;1.75;;;0.40;;
31126;SDS011;17775;57.948;12.514;2023-08-08T07:02:59;2.70;;;0.60;;
31126;SDS011;17775;57.948;12.514;2023-08-08T07:05:27;2.65;;;0.43;;
31126;SDS011;17775;57.948;12.514;2023-08-08T07:07:54;0.32;;;0.20;;
31126;SDS011;17775;57.948;12.514;2023-08-08T07:10:20;0.98;;;0.30;;
31126;SDS011;17775;57.948;12.514;2023-08-08T07:12:48;2.55;;;0.30;;
31126;SDS011;17775;57.948;12.514;2023-08-08T07:15:15;2.20;;;0.50;;
31126;SDS011;17775;57.948;12.514;2023-08-08T07:17:42;0.82;;;0.30;;
31126;SDS011;17775;57.948;12.514;2023-08-08T07:20:08;0.50;;;0.30;;
31126;SDS011;17775;57.948;12.514;2023-08-08T07:22:36;0.80;;;0.32;;
31126;SDS011;17775;57.948;12.514;2023-08-08T07:25:04;1.10;;;0.40;;
31126;SDS011;17775;57.948;12.514;2023-08-08T07:27:32;0.65;;;0.30;;
31126;SDS011;17775;57.948;12.514;2023-08-08T07:29:58;1.27;;;0.20;;
31126;SDS011;17775;57.948;12.514;2023-08-08T07:32:27;1.85;;;0.40;;
31126;SDS011;17775;57.948;12.514;2023-08-08T07:34:57;2.58;;;0.50;;
31126;SDS011;17775;57.948;12.514;2023-08-08T07:37:24;1.17;;;0.30;;
31126;SDS011;17775;57.948;12.514;2023-08-08T07:39:50;1.77;;;0.40;;
31126;SDS011;17775;57.948;12.514;2023-08-08T07:42:20;2.08;;;0.40;;
31126;SDS011;17775;57.948;12.514;2023-08-08T07:44:46;1.20;;;0.30;;
31126;SDS011;17775;57.948;12.514;2023-08-08T07:47:13;3.55;;;0.40;;
31126;SDS011;17775;57.948;12.514;2023-08-08T07:49:39;3.78;;;0.52;;
31126;SDS011;17775;57.948;12.514;2023-08-08T07:52:06;1.90;;;0.28;;
31126;SDS011;17775;57.948;12.514;2023-08-08T07:54:34;1.80;;;0.50;;
31126;SDS011;17775;57.948;12.514;2023-08-08T07:57:00;2.95;;;0.50;;
31126;SDS011;17775;57.948;12.514;2023-08-08T07:59:26;1.23;;;0.20;;
31126;SDS011;17775;57.948;12.514;2023-08-08T08:01:53;0.32;;;0.30;;
31126;SDS011;17775;57.948;12.514;2023-08-08T08:04:20;0.73;;;0.30;;
31126;SDS011;17775;57.948;12.514;2023-08-08T08:06:46;1.33;;;0.30;;
31126;SDS011;17775;57.948;12.514;2023-08-08T08:09:13;1.27;;;0.30;;
31126;SDS011;17775;57.948;12.514;2023-08-08T08:11:40;1.67;;;0.60;;
31126;SDS011;17775;57.948;12.514;2023-08-08T08:14:06;1.05;;;0.30;;
31126;SDS011;17775;57.948;12.514;2023-08-08T08:16:33;1.60;;;0.20;;
31126;SDS011;17775;57.948;12.514;2023-08-08T08:18:59;3.63;;;0.73;;
31126;SDS011;17775;57.948;12.514;2023-08-08T08:21:26;1.52;;;0.30;;
31126;SDS011;17775;57.948;12.514;2023-08-08T08:23:52;1.75;;;0.30;;
31126;SDS011;17775;57.948;12.514;2023-08-08T08:26:19;2.17;;;0.43;;
31126;SDS011;17775;57.948;12.514;2023-08-08T08:28:45;3.88;;;0.50;;
31126;SDS011;17775;57.948;12.514;2023-08-08T08:31:12;0.93;;;0.40;;
31126;SDS011;17775;57.948;12.514;2023-08-08T08:33:38;1.65;;;0.45;;
31126;SDS011;17775;57.948;12.514;2023-08-08T08:36:05;2.22;;;0.60;;
31126;SDS011;17775;57.948;12.514;2023-08-08T08:38:32;3.15;;;0.50;;
31126;SDS011;17775;57.948;12.514;2023-08-08T08:40:58;2.97;;;0.60;;
31126;SDS011;17775;57.948;12.514;2023-08-08T08:43:25;4.35;;;1.00;;
31126;SDS011;17775;57.948;12.514;2023-08-08T08:45:52;1.63;;;0.47;;
31126;SDS011;17775;57.948;12.514;2023-08-08T08:48:20;2.33;;;0.50;;
31126;SDS011;17775;57.948;12.514;2023-08-08T08:50:47;4.32;;;0.43;;
31126;SDS011;17775;57.948;12.514;2023-08-08T08:53:14;5.05;;;0.75;;
31126;SDS011;17775;57.948;12.514;2023-08-08T08:55:41;4.22;;;0.55;;
31126;SDS011;17775;57.948;12.514;2023-08-08T08:58:07;3.20;;;0.50;;
31126;SDS011;17775;57.948;12.514;2023-08-08T09:00:34;3.00;;;0.45;;
31126;SDS011;17775;57.948;12.514;2023-08-08T09:03:01;4.57;;;0.60;;
31126;SDS011;17775;57.948;12.514;2023-08-08T09:05:28;2.45;;;0.40;;
31126;SDS011;17775;57.948;12.514;2023-08-08T09:07:55;3.78;;;0.80;;
31126;SDS011;17775;57.948;12.514;2023-08-08T09:10:21;3.33;;;0.80;;
31126;SDS011;17775;57.948;12.514;2023-08-08T09:12:51;2.70;;;0.63;;
31126;SDS011;17775;57.948;12.514;2023-08-08T09:15:18;4.35;;;1.00;;
31126;SDS011;17775;57.948;12.514;2023-08-08T09:17:44;5.43;;;0.70;;
31126;SDS011;17775;57.948;12.514;2023-08-08T09:20:15;4.55;;;0.80;;
31126;SDS011;17775;57.948;12.514;2023-08-08T09:22:43;3.15;;;0.70;;
31126;SDS011;17775;57.948;12.514;2023-08-08T09:25:09;3.92;;;0.63;;
31126;SDS011;17775;57.948;12.514;2023-08-08T09:27:36;1.33;;;0.50;;
31126;SDS011;17775;57.948;12.514;2023-08-08T09:30:03;3.33;;;0.50;;
31126;SDS011;17775;57.948;12.514;2023-08-08T09:32:30;1.38;;;0.40;;
31126;SDS011;17775;57.948;12.514;2023-08-08T09:34:57;1.67;;;0.50;;
31126;SDS011;17775;57.948;12.514;2023-08-08T09:37:24;0.65;;;0.30;;
31126;SDS011;17775;57.948;12.514;2023-08-08T09:39:57;2.67;;;0.50;;
31126;SDS011;17775;57.948;12.514;2023-08-08T09:42:26;1.30;;;0.50;;
31126;SDS011;17775;57.948;12.514;2023-08-08T09:44:52;2.28;;;0.40;;
31126;SDS011;17775;57.948;12.514;2023-08-08T09:47:20;4.18;;;0.52;;
31126;SDS011;17775;57.948;12.514;2023-08-08T09:49:48;1.10;;;0.30;;
31126;SDS011;17775;57.948;12.514;2023-08-08T09:52:15;2.63;;;0.38;;
31126;SDS011;17775;57.948;12.514;2023-08-08T09:54:42;1.92;;;0.30;;
31126;SDS011;17775;57.948;12.514;2023-08-08T09:57:09;0.38;;;0.20;;
31126;SDS011;17775;57.948;12.514;2023-08-08T09:59:36;1.98;;;0.32;;
31126;SDS011;17775;57.948;12.514;2023-08-08T10:02:04;2.20;;;0.30;;
31126;SDS011;17775;57.948;12.514;2023-08-08T10:04:31;1.13;;;0.30;;
31126;SDS011;17775;57.948;12.514;2023-08-08T10:06:57;2.03;;;0.30;;
31126;SDS011;17775;57.948;12.514;2023-08-08T10:09:24;3.05;;;0.55;;
31126;SDS011;17775;57.948;12.514;2023-08-08T10:11:51;0.98;;;0.40;;
31126;SDS011;17775;57.948;12.514;2023-08-08T10:14:17;1.98;;;0.65;;
31126;SDS011;17775;57.948;12.514;2023-08-08T10:16:44;0.63;;;0.30;;
31126;SDS011;17775;57.948;12.514;2023-08-08T10:19:12;1.30;;;0.30;;
31126;SDS011;17775;57.948;12.514;2023-08-08T10:21:41;9.05;;;0.50;;
31126;SDS011;17775;57.948;12.514;2023-08-08T10:24:08;2.95;;;0.40;;
31126;SDS011;17775;57.948;12.514;2023-08-08T10:26:51;2.17;;;0.38;;
31126;SDS011;17775;57.948;12.514;2023-08-08T10:29:18;0.95;;;0.52;;
31126;SDS011;17775;57.948;12.514;2023-08-08T10:31:50;1.65;;;0.45;;
31126;SDS011;17775;57.948;12.514;2023-08-08T10:34:19;2.60;;;0.40;;
31126;SDS011;17775;57.948;12.514;2023-08-08T10:36:50;2.92;;;0.55;;
31126;SDS011;17775;57.948;12.514;2023-08-08T10:39:20;3.28;;;0.50;;
31126;SDS011;17775;57.948;12.514;2023-08-08T10:41:49;3.95;;;0.65;;
31126;SDS011;17775;57.948;12.514;2023-08-08T10:44:24;2.72;;;0.60;;
31126;SDS011;17775;57.948;12.514;2023-08-08T10:46:52;2.65;;;0.60;;
31126;SDS011;17775;57.948;12.514;2023-08-08T10:49:19;5.88;;;0.80;;
31126;SDS011;17775;57.948;12.514;2023-08-08T10:51:47;2.63;;;0.50;;
31126;SDS011;17775;57.948;12.514;2023-08-08T10:54:18;6.45;;;1.27;;
31126;SDS011;17775;57.948;12.514;2023-08-08T10:56:51;6.45;;;0.80;;
31126;SDS011;17775;57.948;12.514;2023-08-08T10:59:37;3.10;;;0.65;;
31126;SDS011;17775;57.948;12.514;2023-08-08T11:02:04;7.65;;;1.23;;
31126;SDS011;17775;57.948;12.514;2023-08-08T11:04:30;10.30;;;1.00;;
31126;SDS011;17775;57.948;12.514;2023-08-08T11:06:59;28.27;;;2.92;;
31126;SDS011;17775;57.948;12.514;2023-08-08T11:09:25;5.25;;;0.90;;
31126;SDS011;17775;57.948;12.514;2023-08-08T11:11:52;8.55;;;0.85;;
31126;SDS011;17775;57.948;12.514;2023-08-08T11:14:20;9.18;;;0.93;;
31126;SDS011;17775;57.948;12.514;2023-08-08T11:16:48;6.95;;;1.13;;
31126;SDS011;17775;57.948;12.514;2023-08-08T11:19:15;8.63;;;1.27;;
31126;SDS011;17775;57.948;12.514;2023-08-08T11:21:50;6.82;;;1.00;;
31126;SDS011;17775;57.948;12.514;2023-08-08T11:24:17;4.60;;;0.83;;
31126;SDS011;17775;57.948;12.514;2023-08-08T11:26:44;5.90;;;0.73;;
31126;SDS011;17775;57.948;12.514;2023-08-08T11:29:13;6.38;;;1.10;;
31126;SDS011;17775;57.948;12.514;2023-08-08T11:31:40;7.07;;;0.82;;
31126;SDS011;17775;57.948;12.514;2023-08-08T11:34:07;9.40;;;1.05;;
31126;SDS011;17775;57.948;12.514;2023-08-08T11:36:34;6.43;;;1.02;;
31126;SDS011;17775;57.948;12.514;2023-08-08T11:39:02;10.40;;;1.13;;
31126;SDS011;17775;57.948;12.514;2023-08-08T11:41:34;10.45;;;1.17;;
31126;SDS011;17775;57.948;12.514;2023-08-08T11:44:02;10.50;;;1.05;;
31126;SDS011;17775;57.948;12.514;2023-08-08T11:46:29;10.73;;;0.93;;
31126;SDS011;17775;57.948;12.514;2023-08-08T11:49:06;8.45;;;1.52;;
31126;SDS011;17775;57.948;12.514;2023-08-08T11:51:33;6.25;;;0.80;;
31126;SDS011;17775;57.948;12.514;2023-08-08T11:54:03;8.23;;;2.05;;
31126;SDS011;17775;57.948;12.514;2023-08-08T11:56:33;6.63;;;0.80;;
31126;SDS011;17775;57.948;12.514;2023-08-08T11:58:59;8.25;;;0.90;;
31126;SDS011;17775;57.948;12.514;2023-08-08T12:01:26;4.53;;;0.75;;
31126;SDS011;17775;57.948;12.514;2023-08-08T12:03:53;6.97;;;0.90;;
31126;SDS011;17775;57.948;12.514;2023-08-08T12:06:20;5.90;;;0.52;;
31126;SDS011;17775;57.948;12.514;2023-08-08T12:08:47;6.20;;;0.90;;
31126;SDS011;17775;57.948;12.514;2023-08-08T12:11:14;4.40;;;0.55;;
31126;SDS011;17775;57.948;12.514;2023-08-08T12:13:42;7.35;;;0.73;;
31126;SDS011;17775;57.948;12.514;2023-08-08T12:16:09;8.05;;;0.82;;
31126;SDS011;17775;57.948;12.514;2023-08-08T12:18:43;4.07;;;0.80;;
31126;SDS011;17775;57.948;12.514;2023-08-08T12:21:10;6.57;;;1.00;;
31126;SDS011;17775;57.948;12.514;2023-08-08T12:23:36;4.55;;;1.48;;
31126;SDS011;17775;57.948;12.514;2023-08-08T12:26:03;8.10;;;0.82;;
31126;SDS011;17775;57.948;12.514;2023-08-08T12:28:31;9.43;;;1.00;;
31126;SDS011;17775;57.948;12.514;2023-08-08T12:30:58;4.97;;;0.80;;
31126;SDS011;17775;57.948;12.514;2023-08-08T12:33:24;14.95;;;1.40;;
31126;SDS011;17775;57.948;12.514;2023-08-08T12:35:53;3.95;;;0.60;;
31126;SDS011;17775;57.948;12.514;2023-08-08T12:38:20;7.78;;;0.80;;
31126;SDS011;17775;57.948;12.514;2023-08-08T12:40:46;7.10;;;2.15;;
31126;SDS011;17775;57.948;12.514;2023-08-08T12:43:13;4.43;;;0.63;;
31126;SDS011;17775;57.948;12.514;2023-08-08T12:45:44;2.47;;;0.98;;
31126;SDS011;17775;57.948;12.514;2023-08-08T12:48:11;5.47;;;1.25;;
31126;SDS011;17775;57.948;12.514;2023-08-08T12:50:41;7.90;;;0.70;;
31126;SDS011;17775;57.948;12.514;2023-08-08T12:53:07;3.15;;;1.13;;
31126;SDS011;17775;57.948;12.514;2023-08-08T12:55:34;8.45;;;1.02;;
31126;SDS011;17775;57.948;12.514;2023-08-08T12:58:01;5.60;;;1.77;;
31126;SDS011;17775;57.948;12.514;2023-08-08T13:00:28;8.55;;;1.08;;
31126;SDS011;17775;57.948;12.514;2023-08-08T13:02:54;21.58;;;2.63;;
31126;SDS011;17775;57.948;12.514;2023-08-08T13:05:21;9.68;;;1.52;;
31126;SDS011;17775;57.948;12.514;2023-08-08T13:07:48;21.02;;;2.60;;
31126;SDS011;17775;57.948;12.514;2023-08-08T13:10:18;19.98;;;3.20;;
31126;SDS011;17775;57.948;12.514;2023-08-08T13:12:52;28.35;;;3.55;;
31126;SDS011;17775;57.948;12.514;2023-08-08T13:15:19;31.88;;;4.57;;
31126;SDS011;17775;57.948;12.514;2023-08-08T13:17:45;30.67;;;4.03;;
31126;SDS011;17775;57.948;12.514;2023-08-08T13:20:12;31.67;;;4.47;;
31126;SDS011;17775;57.948;12.514;2023-08-08T13:22:39;26.83;;;3.97;;
31126;SDS011;17775;57.948;12.514;2023-08-08T13:25:06;36.03;;;4.30;;
31126;SDS011;17775;57.948;12.514;2023-08-08T13:27:32;32.72;;;4.45;;
31126;SDS011;17775;57.948;12.514;2023-08-08T13:29:59;36.05;;;6.72;;
31126;SDS011;17775;57.948;12.514;2023-08-08T13:32:25;42.30;;;5.72;;
31126;SDS011;17775;57.948;12.514;2023-08-08T13:34:52;41.88;;;6.00;;
31126;SDS011;17775;57.948;12.514;2023-08-08T13:37:18;46.50;;;8.02;;
31126;SDS011;17775;57.948;12.514;2023-08-08T13:39:45;31.25;;;5.00;;
31126;SDS011;17775;57.948;12.514;2023-08-08T13:42:12;43.28;;;4.72;;
31126;SDS011;17775;57.948;12.514;2023-08-08T13:44:38;40.25;;;4.30;;
31126;SDS011;17775;57.948;12.514;2023-08-08T13:47:05;40.03;;;5.22;;
31126;SDS011;17775;57.948;12.514;2023-08-08T13:49:31;33.78;;;4.45;;
31126;SDS011;17775;57.948;12.514;2023-08-08T13:51:58;33.80;;;5.03;;
31126;SDS011;17775;57.948;12.514;2023-08-08T13:54:25;33.65;;;4.30;;
31126;SDS011;17775;57.948;12.514;2023-08-08T13:56:51;43.08;;;5.13;;
31126;SDS011;17775;57.948;12.514;2023-08-08T13:59:18;30.52;;;3.90;;
31126;SDS011;17775;57.948;12.514;2023-08-08T14:01:44;35.97;;;4.45;;
31126;SDS011;17775;57.948;12.514;2023-08-08T14:04:11;29.13;;;4.28;;
31126;SDS011;17775;57.948;12.514;2023-08-08T14:06:37;23.17;;;3.92;;
31126;SDS011;17775;57.948;12.514;2023-08-08T14:09:04;42.70;;;5.82;;
31126;SDS011;17775;57.948;12.514;2023-08-08T14:11:30;31.75;;;4.30;;
31126;SDS011;17775;57.948;12.514;2023-08-08T14:13:57;36.60;;;4.32;;
31126;SDS011;17775;57.948;12.514;2023-08-08T14:16:23;34.20;;;5.65;;
31126;SDS011;17775;57.948;12.514;2023-08-08T14:18:50;42.33;;;5.90;;
31126;SDS011;17775;57.948;12.514;2023-08-08T14:21:16;30.55;;;4.95;;
31126;SDS011;17775;57.948;12.514;2023-08-08T14:23:43;36.08;;;4.35;;
31126;SDS011;17775;57.948;12.514;2023-08-08T14:26:10;28.85;;;4.30;;
31126;SDS011;17775;57.948;12.514;2023-08-08T14:28:37;30.77;;;4.20;;
31126;SDS011;17775;57.948;12.514;2023-08-08T14:31:04;38.72;;;5.57;;
31126;SDS011;17775;57.948;12.514;2023-08-08T14:33:33;41.28;;;5.03;;
31126;SDS011;17775;57.948;12.514;2023-08-08T14:35:59;34.72;;;4.18;;